CheckWX is a tool to help pilots better visualize weather data.  It is not intended as a substitute for an official pre-flight weather briefing.

00:56:53 UTC

KPGV METAR
Pitt-Greenville Airport
Greenville, North Carolina, USA
Current

12 mins ago

KPGV 210045Z AUTO 26008KT 10SM BKN050 BKN065 BKN075 16/08 A2986 RMK AO2
Observed
Apr-21 @ 00:45 UTC
Wind
  • 260° at 8 KTS
Visibility
10 SM
Flight Rules
VFR
Cloud Levels
  • Broken at 5,000' AGL
  • Broken at 6,500' AGL
  • Broken at 7,500' AGL
Temperature
16°C / 61°F
Dewpoint
C / 46°F
Humidity
59%
Altimeter
29.86" Hg
Pressure
1011.22 hPa
Previous

32 mins ago

KPGV 210025Z AUTO 25007KT 10SM BKN050 BKN075 BKN100 17/07 A2985 RMK AO2
Observed
Apr-21 @ 00:25 UTC
Wind
  • 250° at 7 KTS
Visibility
10 SM
Flight Rules
VFR
Cloud Levels
  • Broken at 5,000' AGL
  • Broken at 7,500' AGL
  • Broken at 10,000' AGL
Temperature
17°C / 63°F
Dewpoint
C / 45°F
Humidity
52%
Altimeter
29.85" Hg
Pressure
1010.82 hPa
Previous

52 mins ago

KPGV 210005Z AUTO 23009G14KT 10SM SCT055 SCT100 17/07 A2984 RMK AO2
Observed
Apr-21 @ 00:05 UTC
Wind
  • 230° at 9 KTS
  • Gusting to 14 KTS
Visibility
10 SM
Flight Rules
VFR
Cloud Levels
  • Scattered at 5,500' AGL
  • Scattered at 10,000' AGL
Temperature
17°C / 63°F
Dewpoint
C / 45°F
Humidity
52%
Altimeter
29.84" Hg
Pressure
1010.52 hPa